Time;durP1;ratioP1;P1;durP2;ratioP2;P2;SDS_P1;SDS_P2;PMS_P1;PMS_P2;Temp;Humidity;BMP_temperature;BMP_pressure;BME280_temperature;BME280_humidity;BME280_pressure;Samples;Min_cycle;Max_cycle;Signal;HPM_P1;HPM_P2
2022/08/25 00:01:59;;;;;;;45.17;7.20;;;;;;;;;;5026960;28;20120;-70
2022/08/25 00:04:28;;;;;;;16.27;4.47;;;;;;;;;;5031218;28;20064;-73
2022/08/25 00:06:55;;;;;;;31.38;6.03;;;;;;;;;;5027137;28;20038;-71
2022/08/25 00:09:29;;;;;;;32.58;5.63;;;;;;;;;;5028099;28;20060;-71
2022/08/25 00:11:55;;;;;;;37.00;6.18;;;;;;;;;;5031475;28;20120;-69
2022/08/25 00:14:27;;;;;;;30.55;6.05;;;;;;;;;;5026762;28;20042;-67
2022/08/25 00:16:53;;;;;;;29.67;5.35;;;;;;;;;;5027132;28;20045;-68
2022/08/25 00:19:26;;;;;;;21.65;4.88;;;;;;;;;;5027033;28;20038;-69
2022/08/25 00:21:54;;;;;;;39.40;6.95;;;;;;;;;;5026529;28;20095;-68
2022/08/25 00:24:21;;;;;;;30.98;6.03;;;;;;;;;;5029381;28;20060;-68
2022/08/25 00:26:48;;;;;;;31.90;6.43;;;;;;;;;;5029753;28;20421;-68
2022/08/25 00:29:15;;;;;;;35.55;6.38;;;;;;;;;;5026755;28;20049;-67
2022/08/25 00:31:43;;;;;;;39.33;7.05;;;;;;;;;;5026800;28;20117;-67
2022/08/25 00:34:12;;;;;;;27.20;5.80;;;;;;;;;;5026537;28;20045;-68
2022/08/25 00:36:39;;;;;;;43.05;6.93;;;;;;;;;;5013931;28;22637;-68
2022/08/25 00:39:07;;;;;;;19.27;4.78;;;;;;;;;;5031252;28;20056;-69
2022/08/25 00:41:34;;;;;;;29.02;6.18;;;;;;;;;;5027494;28;20051;-67
2022/08/25 00:44:03;;;;;;;30.63;5.78;;;;;;;;;;5029643;28;20128;-66
2022/08/25 00:46:31;;;;;;;23.50;5.15;;;;;;;;;;5025727;28;20818;-66
2022/08/25 00:48:59;;;;;;;36.33;6.97;;;;;;;;;;5026281;28;20041;-67
2022/08/25 00:51:34;;;;;;;46.75;7.00;;;;;;;;;;5027430;28;20116;-64
2022/08/25 00:54:01;;;;;;;28.45;5.70;;;;;;;;;;5027021;28;20045;-65
2022/08/25 00:56:28;;;;;;;39.60;7.18;;;;;;;;;;5026524;28;20042;-65
2022/08/25 00:58:55;;;;;;;26.90;5.30;;;;;;;;;;5025902;28;20049;-65
2022/08/25 01:01:22;;;;;;;28.88;5.07;;;;;;;;;;5026273;28;20033;-64
2022/08/25 01:03:49;;;;;;;32.08;5.88;;;;;;;;;;5026080;28;20103;-64
2022/08/25 01:06:16;;;;;;;37.30;5.90;;;;;;;;;;5028812;28;20676;-67
2022/08/25 01:08:42;;;;;;;36.15;6.72;;;;;;;;;;5028252;28;20449;-67
2022/08/25 01:11:09;;;;;;;38.45;7.53;;;;;;;;;;5025786;28;20047;-66
2022/08/25 01:13:38;;;;;;;27.02;5.72;;;;;;;;;;5024893;28;20033;-69
2022/08/25 01:16:05;;;;;;;34.05;6.10;;;;;;;;;;5026103;28;20120;-69
2022/08/25 01:18:43;;;;;;;34.53;6.60;;;;;;;;;;5026144;28;20487;-70
2022/08/25 01:21:10;;;;;;;27.65;6.28;;;;;;;;;;5026614;28;20050;-70
2022/08/25 01:23:36;;;;;;;34.95;6.22;;;;;;;;;;5029288;28;20512;-71
2022/08/25 01:26:08;;;;;;;40.95;7.68;;;;;;;;;;5025737;28;20433;-70
2022/08/25 01:28:35;;;;;;;36.72;7.43;;;;;;;;;;5025460;28;20136;-71
2022/08/25 01:31:02;;;;;;;27.83;5.82;;;;;;;;;;5026285;28;20064;-70
2022/08/25 01:33:28;;;;;;;48.00;7.70;;;;;;;;;;5026105;28;20121;-70
2022/08/25 01:35:55;;;;;;;28.67;6.47;;;;;;;;;;5018435;28;20105;-71
2022/08/25 01:38:21;;;;;;;33.05;6.75;;;;;;;;;;5025146;28;20056;-70
2022/08/25 01:40:48;;;;;;;45.08;7.78;;;;;;;;;;5025032;28;20041;-69
2022/08/25 01:43:16;;;;;;;30.80;7.20;;;;;;;;;;5025377;28;20037;-70
2022/08/25 01:45:44;;;;;;;39.38;7.22;;;;;;;;;;5025846;28;20124;-69
2022/08/25 01:48:12;;;;;;;53.78;9.68;;;;;;;;;;5028845;28;20037;-71
2022/08/25 01:50:40;;;;;;;23.15;6.20;;;;;;;;;;5027001;28;20053;-70
2022/08/25 01:53:26;;;;;;;43.33;8.73;;;;;;;;;;5025311;28;20048;-70
2022/08/25 01:56:01;;;;;;;34.50;7.30;;;;;;;;;;5025925;28;20097;-66
2022/08/25 01:58:33;;;;;;;41.20;7.57;;;;;;;;;;5030805;28;20037;-65
2022/08/25 02:01:01;;;;;;;39.58;7.65;;;;;;;;;;5032110;28;20048;-65
2022/08/25 02:03:29;;;;;;;25.98;6.85;;;;;;;;;;5033092;28;20041;-67
2022/08/25 02:06:00;;;;;;;39.17;8.35;;;;;;;;;;5035974;28;20088;-67
2022/08/25 02:08:29;;;;;;;42.58;8.63;;;;;;;;;;5032077;28;20042;-70
2022/08/25 02:10:56;;;;;;;27.30;7.95;;;;;;;;;;5032093;28;20121;-70
2022/08/25 02:13:22;;;;;;;43.17;8.40;;;;;;;;;;5031453;28;20120;-66
2022/08/25 02:15:58;;;;;;;38.33;8.05;;;;;;;;;;5031997;28;20053;-66
2022/08/25 02:18:24;;;;;;;40.22;9.18;;;;;;;;;;5033063;28;20042;-66
2022/08/25 02:20:51;;;;;;;55.63;9.18;;;;;;;;;;5035137;28;20053;-67
2022/08/25 02:23:17;;;;;;;36.95;8.00;;;;;;;;;;5031996;28;20480;-67
2022/08/25 02:25:44;;;;;;;39.13;8.75;;;;;;;;;;5031677;28;20474;-68
2022/08/25 02:28:10;;;;;;;40.88;7.85;;;;;;;;;;5031267;28;20042;-68
2022/08/25 02:30:38;;;;;;;39.58;8.18;;;;;;;;;;5031868;28;20149;-67
2022/08/25 02:33:05;;;;;;;40.42;8.07;;;;;;;;;;5036328;28;20045;-68
2022/08/25 02:35:31;;;;;;;40.88;8.10;;;;;;;;;;5023994;28;20655;-68
2022/08/25 02:37:58;;;;;;;40.20;8.10;;;;;;;;;;5027351;28;20212;-67
2022/08/25 02:40:25;;;;;;;32.58;8.68;;;;;;;;;;5031733;28;20125;-68
2022/08/25 02:42:52;;;;;;;58.92;9.75;;;;;;;;;;5031305;28;20037;-67
2022/08/25 02:45:18;;;;;;;48.65;9.07;;;;;;;;;;5034392;28;20053;-67
2022/08/25 02:47:45;;;;;;;33.38;7.82;;;;;;;;;;5033797;28;20042;-67
2022/08/25 02:50:12;;;;;;;43.80;8.77;;;;;;;;;;5031329;28;20046;-67
2022/08/25 02:52:40;;;;;;;43.08;9.13;;;;;;;;;;5031513;28;20129;-65
2022/08/25 02:55:07;;;;;;;49.22;10.05;;;;;;;;;;5031668;28;20034;-66
2022/08/25 02:57:34;;;;;;;54.83;11.48;;;;;;;;;;5015688;28;20048;-66
2022/08/25 03:00:01;;;;;;;35.05;7.90;;;;;;;;;;5036445;28;20494;-66
2022/08/25 03:02:28;;;;;;;34.08;8.05;;;;;;;;;;5031315;28;20588;-65
2022/08/25 03:04:54;;;;;;;38.83;8.48;;;;;;;;;;5031096;28;20049;-65
2022/08/25 03:07:21;;;;;;;41.05;8.52;;;;;;;;;;5031328;28;20041;-66
2022/08/25 03:09:50;;;;;;;44.47;8.65;;;;;;;;;;5028057;28;20510;-68
2022/08/25 03:12:16;;;;;;;63.45;10.43;;;;;;;;;;5030764;28;20048;-69
2022/08/25 03:14:43;;;;;;;39.78;9.25;;;;;;;;;;5030264;28;20490;-67
2022/08/25 03:17:09;;;;;;;49.03;9.25;;;;;;;;;;5028108;28;20135;-68
2022/08/25 03:19:36;;;;;;;69.35;11.43;;;;;;;;;;5028231;28;20494;-68
2022/08/25 03:22:03;;;;;;;39.90;9.05;;;;;;;;;;5028227;28;20112;-70
2022/08/25 03:24:29;;;;;;;45.40;9.40;;;;;;;;;;5029140;28;20085;-69
2022/08/25 03:26:56;;;;;;;68.43;11.60;;;;;;;;;;5031329;28;20596;-68
2022/08/25 03:29:26;;;;;;;38.78;9.27;;;;;;;;;;5037275;28;20140;-67
2022/08/25 03:31:54;;;;;;;42.47;8.88;;;;;;;;;;5027845;28;20292;-68
2022/08/25 03:34:21;;;;;;;52.60;9.98;;;;;;;;;;5027886;28;20486;-67
2022/08/25 03:36:49;;;;;;;48.83;9.55;;;;;;;;;;5015116;28;20037;-66
2022/08/25 03:39:17;;;;;;;66.07;12.07;;;;;;;;;;5030573;28;20049;-71
2022/08/25 03:41:44;;;;;;;68.55;12.35;;;;;;;;;;5029709;28;20433;-71
2022/08/25 03:44:11;;;;;;;41.17;9.68;;;;;;;;;;5027717;28;20084;-68
2022/08/25 03:46:50;;;;;;;40.38;9.90;;;;;;;;;;5027589;28;20041;-69
2022/08/25 03:49:18;;;;;;;51.20;10.25;;;;;;;;;;5027522;28;20575;-69
2022/08/25 03:51:47;;;;;;;45.70;10.30;;;;;;;;;;5027725;28;20088;-69
2022/08/25 03:54:15;;;;;;;58.20;10.98;;;;;;;;;;5030941;28;20088;-68
2022/08/25 03:56:42;;;;;;;35.42;9.05;;;;;;;;;;5029108;28;20120;-70
2022/08/25 03:59:08;;;;;;;31.48;9.07;;;;;;;;;;5027204;28;20064;-70
2022/08/25 04:01:36;;;;;;;46.83;12.70;;;;;;;;;;5026173;28;20045;-70
2022/08/25 04:04:03;;;;;;;57.47;12.60;;;;;;;;;;5027701;28;20419;-70
2022/08/25 04:06:29;;;;;;;56.97;14.10;;;;;;;;;;5028542;28;20133;-66
2022/08/25 04:08:57;;;;;;;58.10;14.13;;;;;;;;;;5030897;28;20470;-63
2022/08/25 04:11:24;;;;;;;40.45;12.98;;;;;;;;;;5027323;28;20219;-64
2022/08/25 04:13:51;;;;;;;44.92;12.07;;;;;;;;;;5026826;28;20049;-64
2022/08/25 04:16:20;;;;;;;62.65;13.48;;;;;;;;;;5026718;28;20049;-64
2022/08/25 04:18:48;;;;;;;59.50;12.50;;;;;;;;;;5026943;28;20038;-62
2022/08/25 04:21:15;;;;;;;44.70;10.38;;;;;;;;;;5029293;28;20068;-62
2022/08/25 04:23:42;;;;;;;62.58;11.77;;;;;;;;;;5028540;28;20118;-63
2022/08/25 04:26:10;;;;;;;41.70;10.02;;;;;;;;;;5027014;28;20099;-63
2022/08/25 04:28:37;;;;;;;78.80;13.77;;;;;;;;;;5023342;28;20040;-62
2022/08/25 04:31:07;;;;;;;74.43;12.57;;;;;;;;;;5018249;28;20498;-63
2022/08/25 04:33:34;;;;;;;53.63;11.38;;;;;;;;;;5027549;28;20455;-64
2022/08/25 04:36:01;;;;;;;62.78;11.52;;;;;;;;;;5018994;28;20529;-64
2022/08/25 04:38:27;;;;;;;61.72;12.60;;;;;;;;;;5025871;28;20041;-65
2022/08/25 04:40:55;;;;;;;54.38;11.88;;;;;;;;;;5024188;28;20126;-65
2022/08/25 04:43:21;;;;;;;56.40;12.48;;;;;;;;;;5026173;28;20048;-64
2022/08/25 04:45:48;;;;;;;64.45;15.55;;;;;;;;;;5016750;28;20041;-65
2022/08/25 04:48:14;;;;;;;70.10;14.95;;;;;;;;;;5029957;28;20552;-64
2022/08/25 04:50:42;;;;;;;57.72;14.23;;;;;;;;;;5027896;28;20532;-63
2022/08/25 04:53:09;;;;;;;70.20;15.02;;;;;;;;;;5025997;28;20120;-63
2022/08/25 04:55:46;;;;;;;53.33;13.05;;;;;;;;;;5026521;28;20041;-64
2022/08/25 04:58:13;;;;;;;68.60;13.32;;;;;;;;;;5026073;28;20121;-64
2022/08/25 05:00:42;;;;;;;72.47;14.10;;;;;;;;;;5027308;28;20116;-66
2022/08/25 05:03:09;;;;;;;74.05;13.43;;;;;;;;;;5030286;28;20124;-66
2022/08/25 05:05:36;;;;;;;63.90;13.57;;;;;;;;;;5027546;28;20045;-61
2022/08/25 05:08:04;;;;;;;65.43;14.57;;;;;;;;;;5027922;28;20112;-61
2022/08/25 05:10:32;;;;;;;72.55;12.90;;;;;;;;;;5027128;28;20061;-65
2022/08/25 05:12:59;;;;;;;62.60;13.35;;;;;;;;;;5026393;28;20055;-62
2022/08/25 05:18:12;;;;;;;64.43;12.57;;;;;;;;;;5027149;28;20037;-63
2022/08/25 05:20:38;;;;;;;56.88;11.77;;;;;;;;;;5028937;28;20491;-66
2022/08/25 05:23:05;;;;;;;519.83;39.35;;;;;;;;;;5023954;28;20128;-66
2022/08/25 05:25:33;;;;;;;76.50;13.45;;;;;;;;;;5026418;28;20041;-66
2022/08/25 05:27:59;;;;;;;125.05;15.82;;;;;;;;;;5017525;28;20076;-65
2022/08/25 05:30:26;;;;;;;75.53;13.23;;;;;;;;;;5027652;28;20041;-66
2022/08/25 05:32:53;;;;;;;67.22;11.15;;;;;;;;;;5029515;28;20068;-66
2022/08/25 05:35:19;;;;;;;61.67;11.52;;;;;;;;;;5025695;28;20107;-66
2022/08/25 05:37:46;;;;;;;53.78;11.00;;;;;;;;;;5026135;28;20124;-66
2022/08/25 05:40:12;;;;;;;71.60;12.00;;;;;;;;;;5025962;28;20045;-66
2022/08/25 05:42:39;;;;;;;87.03;13.25;;;;;;;;;;5025665;28;20034;-66
2022/08/25 05:45:06;;;;;;;45.70;9.80;;;;;;;;;;5031606;28;20069;-66
2022/08/25 05:47:33;;;;;;;38.95;9.85;;;;;;;;;;5026363;28;20041;-66
2022/08/25 05:50:00;;;;;;;63.40;11.77;;;;;;;;;;5026713;28;20081;-66
2022/08/25 05:52:27;;;;;;;78.45;12.60;;;;;;;;;;5024955;28;20113;-71
2022/08/25 05:54:53;;;;;;;65.28;11.48;;;;;;;;;;5025962;28;20045;-65
2022/08/25 05:57:20;;;;;;;70.45;14.00;;;;;;;;;;5028748;28;20116;-65
2022/08/25 05:59:46;;;;;;;52.40;10.15;;;;;;;;;;5028571;28;20053;-65
2022/08/25 06:04:58;;;;;;;57.70;11.43;;;;;;;;;;5029085;28;20051;-65
2022/08/25 06:07:24;;;;;;;60.25;11.90;;;;;;;;;;5025714;28;20460;-65
2022/08/25 06:09:52;;;;;;;62.28;11.63;;;;;;;;;;5025251;28;20052;-65
2022/08/25 06:12:20;;;;;;;68.60;12.13;;;;;;;;;;5026387;28;20137;-65
2022/08/25 06:14:48;;;;;;;67.90;12.15;;;;;;;;;;5027557;28;20038;-65
2022/08/25 06:17:15;;;;;;;80.97;12.52;;;;;;;;;;5017858;28;20042;-65
2022/08/25 06:19:41;;;;;;;52.15;11.27;;;;;;;;;;5018992;28;20033;-65
2022/08/25 06:22:09;;;;;;;48.13;9.52;;;;;;;;;;5026240;28;20083;-65
2022/08/25 06:24:35;;;;;;;81.63;12.55;;;;;;;;;;5026240;28;20188;-65
2022/08/25 06:27:02;;;;;;;60.22;11.63;;;;;;;;;;5029754;28;20128;-65
2022/08/25 06:29:29;;;;;;;59.60;9.50;;;;;;;;;;5025919;28;20037;-66
2022/08/25 06:31:55;;;;;;;56.65;11.52;;;;;;;;;;5025515;28;20045;-66
2022/08/25 06:34:22;;;;;;;49.65;9.38;;;;;;;;;;5025817;28;20041;-66
2022/08/25 06:36:50;;;;;;;62.70;13.15;;;;;;;;;;5012680;28;20073;-66
2022/08/25 06:39:16;;;;;;;49.22;9.70;;;;;;;;;;5028688;28;20046;-65
2022/08/25 06:41:43;;;;;;;57.35;9.70;;;;;;;;;;5027352;28;20129;-65
2022/08/25 06:44:10;;;;;;;66.85;11.30;;;;;;;;;;5022341;28;20049;-65
2022/08/25 06:46:37;;;;;;;50.97;10.25;;;;;;;;;;5018122;28;20578;-66
2022/08/25 06:49:04;;;;;;;165.70;16.23;;;;;;;;;;5017115;28;20044;-66
2022/08/25 06:51:30;;;;;;;43.80;9.93;;;;;;;;;;5029649;28;20100;-65
2022/08/25 06:53:57;;;;;;;64.55;10.10;;;;;;;;;;5032761;28;20044;-66
2022/08/25 06:56:23;;;;;;;46.90;10.48;;;;;;;;;;5029421;28;20065;-66
2022/08/25 06:58:52;;;;;;;41.10;9.75;;;;;;;;;;5028627;28;20564;-65
2022/08/25 07:01:22;;;;;;;53.80;11.13;;;;;;;;;;5029081;28;20043;-66
2022/08/25 07:03:51;;;;;;;;;;;;;;;;;;5030189;28;20074;-65
2022/08/25 07:06:18;;;;;;;55.83;10.20;;;;;;;;;;5031227;28;20373;-65
2022/08/25 07:08:48;;;;;;;60.85;11.07;;;;;;;;;;5021934;28;20041;-65
2022/08/25 07:11:15;;;;;;;46.42;9.82;;;;;;;;;;5029418;28;20041;-65
2022/08/25 07:13:43;;;;;;;53.78;9.57;;;;;;;;;;5024094;28;20405;-65
2022/08/25 07:16:14;;;;;;;55.83;10.60;;;;;;;;;;5025849;28;20037;-65
2022/08/25 07:18:41;;;;;;;50.27;8.73;;;;;;;;;;5026404;28;20046;-66
2022/08/25 07:21:11;;;;;;;55.25;10.75;;;;;;;;;;5025428;28;20041;-66
2022/08/25 07:23:38;;;;;;;61.38;11.88;;;;;;;;;;5017685;28;20479;-64
2022/08/25 07:26:09;;;;;;;70.53;17.45;;;;;;;;;;5025277;28;20146;-66
2022/08/25 07:28:57;;;;;;;47.30;10.50;;;;;;;;;;5026196;28;20029;-65
2022/08/25 07:31:24;;;;;;;51.47;11.02;;;;;;;;;;5028288;28;20121;-65
2022/08/25 07:36:41;;;;;;;39.85;9.38;;;;;;;;;;5015315;28;20047;-64
2022/08/25 07:39:08;;;;;;;40.03;8.98;;;;;;;;;;5032534;28;20088;-65
2022/08/25 07:41:35;;;;;;;54.97;9.95;;;;;;;;;;5022962;28;20129;-65
2022/08/25 07:44:03;;;;;;;31.60;6.88;;;;;;;;;;5023951;28;20033;-65
2022/08/25 07:46:29;;;;;;;111.63;11.95;;;;;;;;;;5028397;28;20064;-65
2022/08/25 07:48:59;;;;;;;56.50;9.80;;;;;;;;;;5043106;28;20050;-64
2022/08/25 07:51:25;;;;;;;66.28;11.50;;;;;;;;;;5030003;28;20144;-65
2022/08/25 07:53:57;;;;;;;48.85;9.50;;;;;;;;;;5043561;28;20418;-65
2022/08/25 07:56:23;;;;;;;46.17;9.43;;;;;;;;;;5026693;28;20045;-65
2022/08/25 07:58:50;;;;;;;42.97;9.15;;;;;;;;;;5027833;28;20065;-65
2022/08/25 08:01:18;;;;;;;38.92;8.27;;;;;;;;;;5028068;28;20048;-65
2022/08/25 08:03:44;;;;;;;49.72;8.57;;;;;;;;;;5028393;28;20878;-65
2022/08/25 08:06:19;;;;;;;47.90;9.35;;;;;;;;;;5031708;28;20409;-65
2022/08/25 08:08:48;;;;;;;56.85;10.52;;;;;;;;;;5024610;28;20073;-64
2022/08/25 08:11:16;;;;;;;34.05;7.80;;;;;;;;;;5025045;28;20449;-65
2022/08/25 08:13:44;;;;;;;35.80;8.90;;;;;;;;;;5027967;28;20037;-65
2022/08/25 08:16:12;;;;;;;59.25;10.15;;;;;;;;;;5027719;28;20033;-65
2022/08/25 08:18:39;;;;;;;40.90;7.75;;;;;;;;;;5028592;28;20030;-65
2022/08/25 08:21:10;;;;;;;41.42;7.60;;;;;;;;;;5032286;28;20053;-65
2022/08/25 08:23:36;;;;;;;43.20;8.45;;;;;;;;;;5027788;28;20073;-65
2022/08/25 08:26:03;;;;;;;68.85;10.48;;;;;;;;;;5027023;28;20064;-65
2022/08/25 08:28:30;;;;;;;39.25;7.72;;;;;;;;;;5027187;28;20512;-65
2022/08/25 08:30:57;;;;;;;55.55;10.20;;;;;;;;;;5027628;28;20065;-65
2022/08/25 08:33:24;;;;;;;41.38;7.10;;;;;;;;;;5030012;28;20037;-65
2022/08/25 08:36:20;;;;;;;51.05;8.13;;;;;;;;;;5019092;28;20048;-64
2022/08/25 08:38:50;;;;;;;36.88;6.18;;;;;;;;;;4990568;28;20058;-65
2022/08/25 08:44:52;;;;;;;58.90;10.18;;;;;;;;;;4993830;28;20038;-65
2022/08/25 08:47:31;;;;;;;26.00;6.03;;;;;;;;;;5007160;28;20453;-65
2022/08/25 08:50:09;;;;;;;57.92;9.52;;;;;;;;;;5005941;28;20066;-64
2022/08/25 08:52:45;;;;;;;30.15;6.55;;;;;;;;;;5002726;28;20096;-64
2022/08/25 08:55:26;;;;;;;47.95;8.77;;;;;;;;;;5008675;28;20489;-64
2022/08/25 08:57:55;;;;;;;31.80;7.07;;;;;;;;;;5008785;28;20041;-65
2022/08/25 09:00:24;;;;;;;56.53;9.40;;;;;;;;;;5009012;28;20113;-65
2022/08/25 09:02:56;;;;;;;38.53;7.90;;;;;;;;;;5009534;28;20083;-65
2022/08/25 09:05:25;;;;;;;33.55;8.00;;;;;;;;;;5008950;28;20112;-65
2022/08/25 09:07:55;;;;;;;30.35;7.80;;;;;;;;;;4988959;28;20125;-65
2022/08/25 09:10:23;;;;;;;60.20;8.00;;;;;;;;;;4998754;28;20387;-65
2022/08/25 09:13:06;;;;;;;41.17;7.15;;;;;;;;;;5008417;28;20060;-64
2022/08/25 09:18:51;;;;;;;32.65;6.13;;;;;;;;;;5011781;28;20077;-65
2022/08/25 09:21:18;;;;;;;;;;;;;;;;;;5029922;28;20557;-65
2022/08/25 09:23:44;;;;;;;30.90;6.20;;;;;;;;;;5028487;28;19921;-65
2022/08/25 09:26:20;;;;;;;35.60;5.88;;;;;;;;;;5026939;28;20371;-65
2022/08/25 09:28:49;;;;;;;46.35;8.05;;;;;;;;;;5020763;28;20065;-65
2022/08/25 09:31:19;;;;;;;31.13;6.20;;;;;;;;;;5026009;28;20052;-66
2022/08/25 09:33:46;;;;;;;39.70;7.57;;;;;;;;;;5025912;28;20042;-65
2022/08/25 09:36:13;;;;;;;37.40;6.40;;;;;;;;;;5017477;28;20046;-65
2022/08/25 09:38:40;;;;;;;31.00;7.40;;;;;;;;;;5028727;28;20124;-65
2022/08/25 09:41:07;;;;;;;25.60;6.13;;;;;;;;;;5023807;28;20080;-65
2022/08/25 09:43:35;;;;;;;50.47;8.88;;;;;;;;;;5025810;28;20163;-64
2022/08/25 09:46:09;;;;;;;39.08;6.28;;;;;;;;;;5025784;28;20049;-65
2022/08/25 09:48:41;;;;;;;66.80;8.85;;;;;;;;;;4972941;28;153366;-65
2022/08/25 09:51:27;;;;;;;23.90;4.85;;;;;;;;;;5048613;28;20107;-60
2022/08/25 09:53:56;;;;;;;40.22;6.90;;;;;;;;;;5048642;28;20045;-63
2022/08/25 09:56:24;;;;;;;30.73;5.60;;;;;;;;;;5046092;28;20051;-63
2022/08/25 09:58:51;;;;;;;24.17;5.53;;;;;;;;;;5045879;28;20045;-64
2022/08/25 10:01:19;;;;;;;44.42;7.97;;;;;;;;;;5042759;28;20040;-63
2022/08/25 10:03:56;;;;;;;30.42;5.53;;;;;;;;;;5045862;28;20095;-63
2022/08/25 10:06:24;;;;;;;28.63;5.10;;;;;;;;;;5048944;28;20053;-64
2022/08/25 10:08:54;;;;;;;41.15;6.78;;;;;;;;;;5037313;28;20125;-63
2022/08/25 10:11:38;;;;;;;21.17;3.72;;;;;;;;;;5045455;28;20055;-63
2022/08/25 10:14:13;;;;;;;37.45;5.50;;;;;;;;;;5036178;28;20037;-63
2022/08/25 10:16:40;;;;;;;30.50;4.70;;;;;;;;;;5038866;28;20095;-63
2022/08/25 10:19:21;;;;;;;34.78;5.50;;;;;;;;;;5043574;28;20502;-63
2022/08/25 10:22:08;;;;;;;28.75;4.65;;;;;;;;;;5036763;28;20053;-65
2022/08/25 10:24:36;;;;;;;57.83;7.63;;;;;;;;;;5045991;28;20123;-63
2022/08/25 10:27:19;;;;;;;27.60;4.95;;;;;;;;;;5047970;28;20047;-63
2022/08/25 10:29:48;;;;;;;42.85;6.53;;;;;;;;;;5042787;28;20041;-63
2022/08/25 10:32:20;;;;;;;36.03;5.35;;;;;;;;;;5046727;28;20048;-63
2022/08/25 10:34:55;;;;;;;47.13;7.32;;;;;;;;;;5045084;28;20841;-63
2022/08/25 10:37:36;;;;;;;22.35;4.28;;;;;;;;;;5039590;28;20401;-62
2022/08/25 10:40:10;;;;;;;125.07;11.52;;;;;;;;;;5048115;28;20458;-63
2022/08/25 10:42:55;;;;;;;63.80;7.57;;;;;;;;;;5049873;28;20042;-63
2022/08/25 10:45:42;;;;;;;39.20;5.80;;;;;;;;;;5049074;28;20037;-62
2022/08/25 10:48:24;;;;;;;18.02;3.67;;;;;;;;;;5054347;28;20041;-64
2022/08/25 10:50:55;;;;;;;30.70;5.28;;;;;;;;;;5053926;28;20421;-64
2022/08/25 10:53:41;;;;;;;33.60;3.95;;;;;;;;;;5040850;28;20049;-64
2022/08/25 10:56:07;;;;;;;37.35;5.55;;;;;;;;;;5045190;28;20122;-64
2022/08/25 10:58:42;;;;;;;54.72;7.03;;;;;;;;;;5048957;28;20496;-65
2022/08/25 11:01:27;;;;;;;23.17;4.30;;;;;;;;;;5049589;28;20047;-64
2022/08/25 11:04:11;;;;;;;22.63;4.18;;;;;;;;;;5049436;28;20045;-64
2022/08/25 11:06:44;;;;;;;43.13;6.53;;;;;;;;;;5049596;28;20116;-65
2022/08/25 11:09:20;;;;;;;34.45;7.00;;;;;;;;;;5048008;28;20068;-64
2022/08/25 11:11:55;;;;;;;79.80;20.35;;;;;;;;;;5047977;28;20060;-63
2022/08/25 11:14:34;;;;;;;40.00;5.70;;;;;;;;;;5039362;28;20431;-63
2022/08/25 11:17:09;;;;;;;43.50;9.00;;;;;;;;;;5047208;28;20045;-63
2022/08/25 11:19:36;;;;;;;29.83;5.20;;;;;;;;;;5044503;28;20036;-63
2022/08/25 11:22:22;;;;;;;26.58;4.07;;;;;;;;;;5038134;28;20416;-63
2022/08/25 11:25:04;;;;;;;48.75;10.55;;;;;;;;;;5014093;28;20464;-63
2022/08/25 11:27:34;;;;;;;41.65;5.78;;;;;;;;;;5006380;28;20565;-63
2022/08/25 11:30:05;;;;;;;109.60;10.15;;;;;;;;;;5023431;28;20185;-63
2022/08/25 11:32:34;;;;;;;43.80;6.45;;;;;;;;;;5007947;28;20038;-63
2022/08/25 11:35:02;;;;;;;39.55;5.90;;;;;;;;;;5015764;28;20141;-63
2022/08/25 11:37:30;;;;;;;31.83;6.07;;;;;;;;;;5008648;28;20545;-63
2022/08/25 11:40:00;;;;;;;43.95;5.93;;;;;;;;;;4999454;28;20042;-63
2022/08/25 11:42:45;;;;;;;71.80;9.35;;;;;;;;;;4994303;28;20145;-64
2022/08/25 11:45:21;;;;;;;29.73;5.07;;;;;;;;;;5001087;28;20073;-64
2022/08/25 11:47:50;;;;;;;57.17;7.00;;;;;;;;;;5016545;28;20113;-64
2022/08/25 11:50:22;;;;;;;24.50;4.82;;;;;;;;;;5006784;28;20061;-64
2022/08/25 11:52:56;;;;;;;34.72;5.75;;;;;;;;;;5013339;28;20136;-62
2022/08/25 11:55:28;;;;;;;26.20;4.28;;;;;;;;;;5019378;28;20061;-62
2022/08/25 11:58:17;;;;;;;51.50;7.47;;;;;;;;;;5008267;28;20506;-63
2022/08/25 12:00:44;;;;;;;95.05;11.57;;;;;;;;;;4926533;29;20464;-62
2022/08/25 12:03:30;;;;;;;31.63;5.93;;;;;;;;;;4967149;28;20059;-62
2022/08/25 12:06:15;;;;;;;48.42;6.70;;;;;;;;;;4970250;28;20051;-62
2022/08/25 12:08:53;;;;;;;39.00;5.90;;;;;;;;;;4916042;28;174190;-62
2022/08/25 12:11:41;;;;;;;37.17;5.63;;;;;;;;;;4971249;28;20093;-62
2022/08/25 12:14:35;;;;;;;46.67;5.30;;;;;;;;;;4970955;28;20054;-62
2022/08/25 12:17:06;;;;;;;35.60;6.78;;;;;;;;;;4970826;28;20121;-62
2022/08/25 12:19:37;;;;;;;28.92;5.05;;;;;;;;;;4971074;28;20531;-62
2022/08/25 12:22:07;;;;;;;33.63;4.93;;;;;;;;;;4970790;28;20043;-63
2022/08/25 12:24:43;;;;;;;37.17;5.15;;;;;;;;;;4971084;28;20122;-63
2022/08/25 12:27:32;;;;;;;19.38;4.15;;;;;;;;;;4970548;28;20105;-63
2022/08/25 12:29:59;;;;;;;24.98;4.60;;;;;;;;;;4969162;28;20043;-62
2022/08/25 12:32:34;;;;;;;30.73;4.13;;;;;;;;;;4970859;28;20050;-63
2022/08/25 12:35:10;;;;;;;30.88;5.05;;;;;;;;;;4969703;28;20043;-62
2022/08/25 12:37:58;;;;;;;86.93;10.27;;;;;;;;;;4992484;28;20049;-61
2022/08/25 12:40:51;;;;;;;45.20;5.75;;;;;;;;;;5038703;28;20041;-63
2022/08/25 12:43:18;;;;;;;45.20;5.75;;;;;;;;;;5037174;28;20103;-63
2022/08/25 12:45:46;;;;;;;32.35;4.78;;;;;;;;;;5037340;28;20030;-63
2022/08/25 12:48:25;;;;;;;31.58;3.83;;;;;;;;;;5048885;28;20044;-63
2022/08/25 12:51:14;;;;;;;27.65;5.07;;;;;;;;;;5037670;28;20053;-62
2022/08/25 12:53:41;;;;;;;42.28;5.72;;;;;;;;;;5045318;28;20049;-63
2022/08/25 12:56:19;;;;;;;33.70;5.00;;;;;;;;;;5046347;28;20135;-63
2022/08/25 12:58:48;;;;;;;29.33;5.10;;;;;;;;;;5043193;28;20072;-63
2022/08/25 13:01:26;;;;;;;51.55;5.45;;;;;;;;;;5041741;28;20036;-63
2022/08/25 13:04:10;;;;;;;28.25;4.97;;;;;;;;;;5046008;28;20068;-63
2022/08/25 13:06:53;;;;;;;26.65;5.45;;;;;;;;;;5034296;28;20038;-63
2022/08/25 13:09:36;;;;;;;36.78;6.35;;;;;;;;;;5037983;28;20052;-62
2022/08/25 13:12:39;;;;;;;32.85;5.13;;;;;;;;;;5051200;28;20469;-62
2022/08/25 13:15:10;;;;;;;22.00;4.35;;;;;;;;;;4990303;28;20474;-63
2022/08/25 13:17:37;;;;;;;24.45;4.45;;;;;;;;;;4993641;28;20470;-63
2022/08/25 13:20:23;;;;;;;48.55;5.60;;;;;;;;;;4992513;28;20080;-62
2022/08/25 13:22:52;;;;;;;21.75;4.50;;;;;;;;;;4989974;28;20442;-63
2022/08/25 13:25:23;;;;;;;;;;;;;;;;;;4990590;28;20068;-62
2022/08/25 13:27:58;;;;;;;23.70;4.47;;;;;;;;;;4993007;28;19922;-63
2022/08/25 13:30:37;;;;;;;29.85;4.95;;;;;;;;;;4988281;28;20050;-63
2022/08/25 13:33:15;;;;;;;18.02;3.50;;;;;;;;;;4988548;28;20047;-64
2022/08/25 13:37:26;;;;;;;23.63;4.30;;;;;;;;;;4991755;28;20060;-62
2022/08/25 13:38:37;;;;;;;16.80;3.50;;;;;;;;;;4991195;28;20050;-63
2022/08/25 13:41:05;;;;;;;25.75;4.38;;;;;;;;;;4993203;28;20045;-61
2022/08/25 13:43:38;;;;;;;11.13;3.13;;;;;;;;;;4977132;28;20101;-58
2022/08/25 13:46:06;;;;;;;27.60;4.88;;;;;;;;;;4992624;28;20141;-64
2022/08/25 13:48:37;;;;;;;51.65;6.60;;;;;;;;;;5002954;28;20079;-57
2022/08/25 13:51:24;;;;;;;22.38;3.78;;;;;;;;;;5050442;28;20479;-60
2022/08/25 13:54:02;;;;;;;37.55;5.53;;;;;;;;;;5048511;28;20498;-61
2022/08/25 13:56:31;;;;;;;20.75;3.55;;;;;;;;;;5046519;28;20425;-61
2022/08/25 13:59:16;;;;;;;35.33;5.50;;;;;;;;;;5045975;28;20121;-61
2022/08/25 14:01:45;;;;;;;60.47;6.90;;;;;;;;;;5046312;28;20090;-61
2022/08/25 14:04:20;;;;;;;23.23;4.10;;;;;;;;;;5043194;28;20052;-61
2022/08/25 14:06:47;;;;;;;37.47;5.07;;;;;;;;;;5036286;28;20121;-61
2022/08/25 14:09:15;;;;;;;28.33;4.80;;;;;;;;;;5050623;28;20041;-61
2022/08/25 14:11:42;;;;;;;51.63;6.82;;;;;;;;;;5050117;28;20489;-61
2022/08/25 14:14:11;;;;;;;24.02;4.57;;;;;;;;;;5045788;28;20037;-61
2022/08/25 14:16:39;;;;;;;86.22;8.10;;;;;;;;;;5046001;28;20052;-61
2022/08/25 14:19:12;;;;;;;36.42;6.20;;;;;;;;;;5046024;28;20536;-61
2022/08/25 14:21:45;;;;;;;43.20;6.45;;;;;;;;;;5045960;28;20048;-61
2022/08/25 14:24:16;;;;;;;36.83;5.60;;;;;;;;;;5046860;28;20486;-61
2022/08/25 14:26:48;;;;;;;34.45;5.50;;;;;;;;;;5049319;28;20567;-61
2022/08/25 14:29:20;;;;;;;33.72;4.68;;;;;;;;;;5045616;28;20041;-61
2022/08/25 14:31:48;;;;;;;43.78;6.25;;;;;;;;;;5045977;28;20068;-61
2022/08/25 14:34:16;;;;;;;39.25;5.28;;;;;;;;;;5046108;28;20512;-61
2022/08/25 14:36:45;;;;;;;30.20;4.78;;;;;;;;;;5031621;28;20084;-62
2022/08/25 14:39:13;;;;;;;32.20;5.05;;;;;;;;;;5046492;28;20211;-62
2022/08/25 14:41:41;;;;;;;29.27;5.07;;;;;;;;;;5045595;28;20045;-62
2022/08/25 14:44:09;;;;;;;25.40;4.75;;;;;;;;;;5045373;28;20715;-61
2022/08/25 14:46:37;;;;;;;36.03;5.25;;;;;;;;;;5045485;28;20120;-62
2022/08/25 14:49:08;;;;;;;25.42;4.53;;;;;;;;;;5045701;28;20498;-62
2022/08/25 14:51:37;;;;;;;40.78;5.97;;;;;;;;;;5047005;28;20057;-62
2022/08/25 14:54:06;;;;;;;18.52;3.60;;;;;;;;;;5047382;28;20072;-61
2022/08/25 14:56:34;;;;;;;26.55;4.95;;;;;;;;;;5044577;28;20123;-62
2022/08/25 14:59:02;;;;;;;41.78;6.13;;;;;;;;;;5045827;28;20044;-62
2022/08/25 15:01:30;;;;;;;31.85;5.28;;;;;;;;;;5043935;28;20045;-62